AAL1522 KLGA-KCMH
Flight info
| Callsign | AAL1522 |
|---|---|
| Flight time | 1h 28m |
| Altitude | 38000 |
| Route | ZIMMZ Q42 MIKYG Q480 AIR CLPRR3 |
| Aircraft | A20N/M-SDE2E3FGHIRWXY/LB1 |
Departure
| Time | 2026-05-08 23:19 |
|---|---|
| Airport | LaGuardia Airport (KLGA) |
Arrival
| Time | 2026-05-09 00:47 |
|---|---|
| Airport | John Glenn Columbus International Airport (KCMH) |
| Time | Latitude | Longitude | Altitude | Speed | Heading |
|---|---|---|---|---|---|
| 2026-05-08 23:02 | 40.77032 | -73.86058 | 15 ft | 0 kts | 247° |
| 2026-05-08 23:13 | 40.77038 | -73.86040 | 14 ft | 3 kts | 252° |
| 2026-05-08 23:13 | 40.77041 | -73.86011 | 14 ft | 3 kts | 286° |
| 2026-05-08 23:13 | 40.77025 | -73.85983 | 17 ft | 4 kts | 329° |
| 2026-05-08 23:13 | 40.76999 | -73.85964 | 14 ft | 4 kts | 352° |
| 2026-05-08 23:14 | 40.76986 | -73.85965 | 16 ft | 0 kts | 26° |
| 2026-05-08 23:15 | 40.76987 | -73.85965 | 16 ft | 1 kts | 26° |
| 2026-05-08 23:15 | 40.77016 | -73.85946 | 14 ft | 8 kts | 26° |
| 2026-05-08 23:15 | 40.77077 | -73.85902 | 17 ft | 12 kts | 34° |
| 2026-05-08 23:15 | 40.77140 | -73.85819 | 16 ft | 14 kts | 49° |
| 2026-05-08 23:16 | 40.77148 | -73.85807 | 17 ft | 0 kts | 49° |
| 2026-05-08 23:17 | 40.77152 | -73.85802 | 17 ft | 3 kts | 48° |
| 2026-05-08 23:17 | 40.77189 | -73.85767 | 16 ft | 9 kts | 22° |
| 2026-05-08 23:18 | 40.77244 | -73.85792 | 18 ft | 9 kts | 314° |
| 2026-05-08 23:18 | 40.77291 | -73.85889 | 18 ft | 25 kts | 303° |
| 2026-05-08 23:18 | 40.77544 | -73.86415 | 16 ft | 108 kts | 302° |
| 2026-05-08 23:18 | 40.78056 | -73.87498 | 197 ft | 156 kts | 304° |
| 2026-05-08 23:19 | 40.78665 | -73.88725 | 899 ft | 161 kts | 312° |
| 2026-05-08 23:19 | 40.79619 | -73.89427 | 1895 ft | 161 kts | 345° |
| 2026-05-08 23:19 | 40.80773 | -73.89738 | 2652 ft | 179 kts | 347° |
| 2026-05-08 23:19 | 40.82067 | -73.90065 | 3203 ft | 200 kts | 347° |
| 2026-05-08 23:20 | 40.83508 | -73.90427 | 3760 ft | 221 kts | 347° |
| 2026-05-08 23:20 | 40.85095 | -73.90813 | 4338 ft | 243 kts | 347° |
| 2026-05-08 23:20 | 40.86818 | -73.91224 | 5015 ft | 259 kts | 347° |
| 2026-05-08 23:20 | 40.88620 | -73.91642 | 5938 ft | 264 kts | 347° |
| 2026-05-08 23:21 | 40.90442 | -73.92046 | 6871 ft | 268 kts | 347° |
| 2026-05-08 23:21 | 40.92297 | -73.92419 | 7851 ft | 270 kts | 347° |
| 2026-05-08 23:21 | 40.94115 | -73.92965 | 8792 ft | 266 kts | 330° |
| 2026-05-08 23:21 | 40.95554 | -73.94408 | 9756 ft | 258 kts | 304° |
| 2026-05-08 23:22 | 40.96312 | -73.96526 | 10509 ft | 261 kts | 280° |
| 2026-05-08 23:22 | 40.96288 | -73.99005 | 10855 ft | 283 kts | 259° |
| 2026-05-08 23:22 | 40.95795 | -74.01622 | 11280 ft | 299 kts | 257° |
| 2026-05-08 23:22 | 40.95282 | -74.04266 | 12144 ft | 301 kts | 257° |
| 2026-05-08 23:23 | 40.94766 | -74.06947 | 13090 ft | 300 kts | 257° |
| 2026-05-08 23:23 | 40.94284 | -74.09640 | 13970 ft | 301 kts | 261° |
| 2026-05-08 23:23 | 40.93969 | -74.12435 | 14714 ft | 305 kts | 263° |
| 2026-05-08 23:23 | 40.93702 | -74.15187 | 15424 ft | 308 kts | 263° |
| 2026-05-08 23:24 | 40.93502 | -74.17082 | 15923 ft | 310 kts | 262° |
| 2026-05-08 23:24 | 40.93055 | -74.20861 | 16537 ft | 315 kts | 261° |
| 2026-05-08 23:24 | 40.92808 | -74.22780 | 16609 ft | 314 kts | 260° |
| 2026-05-08 23:24 | 40.92426 | -74.25633 | 16727 ft | 315 kts | 260° |
| 2026-05-08 23:25 | 40.92038 | -74.28486 | 16833 ft | 315 kts | 260° |
| 2026-05-08 23:25 | 40.91648 | -74.31334 | 16945 ft | 316 kts | 260° |
| 2026-05-08 23:25 | 40.91256 | -74.34200 | 17012 ft | 317 kts | 260° |
| 2026-05-08 23:25 | 40.90862 | -74.37073 | 17053 ft | 318 kts | 260° |
| 2026-05-08 23:26 | 40.90465 | -74.39965 | 17584 ft | 321 kts | 260° |
| 2026-05-08 23:26 | 40.90067 | -74.42867 | 18377 ft | 321 kts | 259° |
| 2026-05-08 23:26 | 40.89666 | -74.45783 | 19011 ft | 323 kts | 260° |
| 2026-05-08 23:26 | 40.89263 | -74.48702 | 19637 ft | 326 kts | 260° |
| 2026-05-08 23:27 | 40.88854 | -74.51663 | 20277 ft | 328 kts | 260° |
| 2026-05-08 23:27 | 40.88441 | -74.54648 | 20916 ft | 330 kts | 260° |
| 2026-05-08 23:27 | 40.88031 | -74.57600 | 21529 ft | 332 kts | 260° |
| 2026-05-08 23:27 | 40.87612 | -74.60617 | 22159 ft | 334 kts | 261° |
| 2026-05-08 23:28 | 40.87189 | -74.63651 | 22759 ft | 337 kts | 261° |
| 2026-05-08 23:28 | 40.86764 | -74.66698 | 23353 ft | 339 kts | 261° |
| 2026-05-08 23:28 | 40.86334 | -74.69774 | 23863 ft | 341 kts | 261° |
| 2026-05-08 23:28 | 40.85901 | -74.72859 | 24401 ft | 342 kts | 261° |
| 2026-05-08 23:29 | 40.85467 | -74.75959 | 24915 ft | 343 kts | 261° |
| 2026-05-08 23:29 | 40.85031 | -74.79063 | 25419 ft | 345 kts | 261° |
| 2026-05-08 23:29 | 40.84593 | -74.82184 | 25914 ft | 346 kts | 261° |
| 2026-05-08 23:29 | 40.84151 | -74.85317 | 26391 ft | 348 kts | 261° |
| 2026-05-08 23:30 | 40.83704 | -74.88487 | 26834 ft | 350 kts | 261° |
| 2026-05-08 23:30 | 40.83257 | -74.91651 | 27326 ft | 351 kts | 261° |
| 2026-05-08 23:30 | 40.82806 | -74.94832 | 27766 ft | 353 kts | 261° |
| 2026-05-08 23:30 | 40.82359 | -74.97976 | 28192 ft | 354 kts | 261° |
| 2026-05-08 23:31 | 40.81896 | -75.01228 | 28609 ft | 356 kts | 261° |
| 2026-05-08 23:31 | 40.81445 | -75.04389 | 29005 ft | 357 kts | 261° |
| 2026-05-08 23:31 | 40.80975 | -75.07680 | 29411 ft | 359 kts | 261° |
| 2026-05-08 23:31 | 40.80516 | -75.10882 | 29786 ft | 360 kts | 261° |
| 2026-05-08 23:32 | 40.80042 | -75.14178 | 30134 ft | 362 kts | 261° |
| 2026-05-08 23:32 | 40.79569 | -75.17452 | 30470 ft | 363 kts | 261° |
| 2026-05-08 23:32 | 40.79093 | -75.20726 | 30819 ft | 364 kts | 261° |
| 2026-05-08 23:32 | 40.78619 | -75.23981 | 31184 ft | 364 kts | 261° |
| 2026-05-08 23:33 | 40.78138 | -75.27281 | 31636 ft | 362 kts | 261° |
| 2026-05-08 23:33 | 40.77667 | -75.30498 | 32110 ft | 359 kts | 261° |
| 2026-05-08 23:33 | 40.77190 | -75.33745 | 32589 ft | 356 kts | 261° |
| 2026-05-08 23:33 | 40.76590 | -75.36907 | 33041 ft | 355 kts | 257° |
| 2026-05-08 23:34 | 40.75790 | -75.39981 | 33484 ft | 355 kts | 253° |
| 2026-05-08 23:34 | 40.74768 | -75.43047 | 33902 ft | 355 kts | 249° |
| 2026-05-08 23:34 | 40.73684 | -75.45912 | 34227 ft | 354 kts | 250° |
| 2026-05-08 23:34 | 40.72590 | -75.48836 | 34465 ft | 354 kts | 250° |
| 2026-05-08 23:35 | 40.71505 | -75.51747 | 34677 ft | 355 kts | 250° |
| 2026-05-08 23:35 | 40.70412 | -75.54676 | 34919 ft | 355 kts | 250° |
| 2026-05-08 23:35 | 40.69320 | -75.57599 | 35172 ft | 355 kts | 250° |
| 2026-05-08 23:35 | 40.68229 | -75.60517 | 35397 ft | 355 kts | 249° |
| 2026-05-08 23:36 | 40.67126 | -75.63460 | 35623 ft | 355 kts | 249° |
| 2026-05-08 23:36 | 40.66006 | -75.66444 | 35855 ft | 356 kts | 249° |
| 2026-05-08 23:36 | 40.64909 | -75.69364 | 36058 ft | 356 kts | 249° |
| 2026-05-08 23:36 | 40.63812 | -75.72280 | 36270 ft | 356 kts | 249° |
| 2026-05-08 23:37 | 40.62711 | -75.75204 | 36492 ft | 356 kts | 249° |
| 2026-05-08 23:37 | 40.61617 | -75.78111 | 36693 ft | 356 kts | 249° |
| 2026-05-08 23:37 | 40.60511 | -75.81043 | 36891 ft | 356 kts | 249° |
| 2026-05-08 23:37 | 40.59412 | -75.83953 | 37072 ft | 356 kts | 249° |
| 2026-05-08 23:38 | 40.58308 | -75.86864 | 37261 ft | 356 kts | 249° |
| 2026-05-08 23:38 | 40.57197 | -75.89787 | 37430 ft | 356 kts | 249° |
| 2026-05-08 23:38 | 40.56088 | -75.92703 | 37624 ft | 356 kts | 249° |
| 2026-05-08 23:38 | 40.54980 | -75.95615 | 37800 ft | 356 kts | 249° |
| 2026-05-08 23:39 | 40.53858 | -75.98562 | 37924 ft | 356 kts | 249° |
| 2026-05-08 23:39 | 40.52752 | -76.01463 | 37928 ft | 355 kts | 249° |
| 2026-05-08 23:39 | 40.50538 | -76.07257 | 37925 ft | 354 kts | 249° |
| 2026-05-08 23:40 | 40.48328 | -76.13034 | 37925 ft | 353 kts | 249° |
| 2026-05-08 23:40 | 40.46118 | -76.18798 | 37926 ft | 353 kts | 249° |
| 2026-05-08 23:41 | 40.43911 | -76.24546 | 37924 ft | 352 kts | 249° |
| 2026-05-08 23:41 | 40.41698 | -76.30294 | 37925 ft | 352 kts | 249° |
| 2026-05-08 23:42 | 40.39492 | -76.36016 | 37928 ft | 352 kts | 249° |
| 2026-05-08 23:42 | 40.37277 | -76.41748 | 37930 ft | 351 kts | 249° |
| 2026-05-08 23:43 | 40.35069 | -76.47452 | 37931 ft | 350 kts | 249° |
| 2026-05-08 23:43 | 40.32841 | -76.53135 | 37929 ft | 350 kts | 248° |
| 2026-05-08 23:44 | 40.30570 | -76.58787 | 37923 ft | 350 kts | 248° |
| 2026-05-08 23:44 | 40.28309 | -76.64416 | 37923 ft | 349 kts | 248° |
| 2026-05-08 23:45 | 40.26048 | -76.70046 | 37926 ft | 349 kts | 248° |
| 2026-05-08 23:45 | 40.23791 | -76.75661 | 37925 ft | 348 kts | 248° |
| 2026-05-08 23:46 | 40.21515 | -76.81311 | 37932 ft | 348 kts | 248° |
| 2026-05-08 23:46 | 40.19261 | -76.86895 | 37934 ft | 347 kts | 249° |
| 2026-05-08 23:47 | 40.17003 | -76.92482 | 37934 ft | 347 kts | 249° |
| 2026-05-08 23:47 | 40.14746 | -76.98053 | 37933 ft | 347 kts | 249° |
| 2026-05-08 23:48 | 40.12487 | -77.03619 | 37933 ft | 346 kts | 249° |
| 2026-05-08 23:48 | 40.10226 | -77.09181 | 37935 ft | 346 kts | 249° |
| 2026-05-08 23:49 | 40.07964 | -77.14733 | 37937 ft | 346 kts | 249° |
| 2026-05-08 23:49 | 40.05701 | -77.20278 | 37948 ft | 346 kts | 249° |
| 2026-05-08 23:50 | 40.03806 | -77.24914 | 37952 ft | 346 kts | 248° |
| 2026-05-08 23:50 | 40.01535 | -77.30460 | 37955 ft | 346 kts | 249° |
| 2026-05-08 23:51 | 39.99261 | -77.36003 | 37954 ft | 346 kts | 249° |
| 2026-05-08 23:51 | 39.97225 | -77.41643 | 37949 ft | 340 kts | 255° |
| 2026-05-08 23:52 | 39.96081 | -77.47571 | 37960 ft | 336 kts | 264° |
| 2026-05-08 23:52 | 39.95831 | -77.53629 | 37959 ft | 335 kts | 272° |
| 2026-05-08 23:53 | 39.96046 | -77.59703 | 37965 ft | 335 kts | 271° |
| 2026-05-08 23:53 | 39.96236 | -77.65771 | 37949 ft | 334 kts | 271° |
| 2026-05-08 23:54 | 39.96420 | -77.71804 | 37948 ft | 333 kts | 271° |
| 2026-05-08 23:55 | 39.96691 | -77.80838 | 37950 ft | 332 kts | 271° |
| 2026-05-08 23:55 | 39.96867 | -77.86798 | 37954 ft | 332 kts | 271° |
| 2026-05-08 23:56 | 39.97040 | -77.92799 | 37949 ft | 331 kts | 271° |
| 2026-05-08 23:56 | 39.97208 | -77.98799 | 37955 ft | 331 kts | 271° |
| 2026-05-08 23:57 | 39.97375 | -78.04807 | 37951 ft | 331 kts | 271° |
| 2026-05-08 23:57 | 39.97541 | -78.10813 | 37951 ft | 331 kts | 271° |
| 2026-05-08 23:58 | 39.97701 | -78.16814 | 37945 ft | 332 kts | 271° |
| 2026-05-08 23:58 | 39.97859 | -78.22804 | 37948 ft | 329 kts | 272° |
| 2026-05-08 23:59 | 39.98013 | -78.28739 | 37947 ft | 329 kts | 271° |
| 2026-05-08 23:59 | 39.98163 | -78.34712 | 37946 ft | 329 kts | 271° |
| 2026-05-09 00:00 | 39.98311 | -78.40675 | 37944 ft | 329 kts | 271° |
| 2026-05-09 00:00 | 39.98455 | -78.46651 | 37943 ft | 329 kts | 271° |
| 2026-05-09 00:01 | 39.98597 | -78.52616 | 37943 ft | 329 kts | 271° |
| 2026-05-09 00:01 | 39.98735 | -78.58562 | 37935 ft | 328 kts | 271° |
| 2026-05-09 00:02 | 39.98869 | -78.64505 | 37935 ft | 327 kts | 271° |
| 2026-05-09 00:02 | 39.99001 | -78.70437 | 37942 ft | 327 kts | 271° |
| 2026-05-09 00:03 | 39.99130 | -78.76367 | 37935 ft | 327 kts | 271° |
| 2026-05-09 00:03 | 39.99255 | -78.82308 | 37939 ft | 327 kts | 271° |
| 2026-05-09 00:04 | 39.99379 | -78.88245 | 37944 ft | 328 kts | 271° |
| 2026-05-09 00:04 | 39.99498 | -78.94216 | 37952 ft | 329 kts | 271° |
| 2026-05-09 00:05 | 39.99615 | -79.00174 | 37947 ft | 329 kts | 271° |
| 2026-05-09 00:05 | 39.99729 | -79.06100 | 37958 ft | 329 kts | 271° |
| 2026-05-09 00:06 | 39.99839 | -79.12068 | 37947 ft | 329 kts | 270° |
| 2026-05-09 00:06 | 39.99947 | -79.18045 | 37957 ft | 329 kts | 270° |
| 2026-05-09 00:07 | 40.00052 | -79.24011 | 37952 ft | 329 kts | 270° |
| 2026-05-09 00:07 | 40.00154 | -79.29970 | 37959 ft | 328 kts | 270° |
| 2026-05-09 00:08 | 40.00252 | -79.35942 | 37958 ft | 330 kts | 270° |
| 2026-05-09 00:08 | 40.00349 | -79.41922 | 37957 ft | 329 kts | 270° |
| 2026-05-09 00:09 | 40.00440 | -79.47861 | 37950 ft | 330 kts | 270° |
| 2026-05-09 00:09 | 40.00529 | -79.53832 | 37940 ft | 329 kts | 270° |
| 2026-05-09 00:10 | 40.00616 | -79.59820 | 37939 ft | 330 kts | 270° |
| 2026-05-09 00:10 | 40.00699 | -79.65816 | 37896 ft | 330 kts | 270° |
| 2026-05-09 00:10 | 40.00740 | -79.68812 | 37647 ft | 330 kts | 270° |
| 2026-05-09 00:11 | 40.00780 | -79.71810 | 37375 ft | 329 kts | 270° |
| 2026-05-09 00:11 | 40.00818 | -79.74798 | 37110 ft | 330 kts | 270° |
| 2026-05-09 00:11 | 40.00856 | -79.77793 | 36850 ft | 331 kts | 270° |
| 2026-05-09 00:11 | 40.00894 | -79.80797 | 36587 ft | 332 kts | 270° |
| 2026-05-09 00:12 | 40.00931 | -79.83804 | 36334 ft | 332 kts | 270° |
| 2026-05-09 00:12 | 40.00967 | -79.86824 | 36079 ft | 332 kts | 270° |
| 2026-05-09 00:12 | 40.01002 | -79.89840 | 35827 ft | 333 kts | 270° |
| 2026-05-09 00:12 | 40.01037 | -79.92861 | 35584 ft | 333 kts | 270° |
| 2026-05-09 00:13 | 40.01071 | -79.95877 | 35336 ft | 333 kts | 270° |
| 2026-05-09 00:13 | 40.01104 | -79.98903 | 35094 ft | 334 kts | 270° |
| 2026-05-09 00:13 | 40.01137 | -80.01933 | 34856 ft | 334 kts | 270° |
| 2026-05-09 00:13 | 40.01168 | -80.04969 | 34621 ft | 335 kts | 270° |
| 2026-05-09 00:14 | 40.01199 | -80.08014 | 34385 ft | 335 kts | 270° |
| 2026-05-09 00:14 | 40.01229 | -80.11058 | 34151 ft | 335 kts | 270° |
| 2026-05-09 00:14 | 40.01258 | -80.14101 | 33911 ft | 336 kts | 270° |
| 2026-05-09 00:14 | 40.01287 | -80.17147 | 33642 ft | 337 kts | 270° |
| 2026-05-09 00:15 | 40.01315 | -80.20225 | 33372 ft | 340 kts | 270° |
| 2026-05-09 00:15 | 40.01342 | -80.23318 | 33100 ft | 342 kts | 270° |
| 2026-05-09 00:15 | 40.01369 | -80.26430 | 32825 ft | 344 kts | 270° |
| 2026-05-09 00:15 | 40.01395 | -80.29565 | 32586 ft | 347 kts | 270° |
| 2026-05-09 00:16 | 40.01421 | -80.32720 | 32314 ft | 349 kts | 270° |
| 2026-05-09 00:16 | 40.01445 | -80.35891 | 32054 ft | 350 kts | 270° |
| 2026-05-09 00:16 | 40.01469 | -80.39039 | 31800 ft | 352 kts | 270° |
| 2026-05-09 00:16 | 40.01492 | -80.42257 | 31549 ft | 355 kts | 270° |
| 2026-05-09 00:17 | 40.01514 | -80.45486 | 31294 ft | 357 kts | 270° |
| 2026-05-09 00:17 | 40.01536 | -80.48740 | 31036 ft | 359 kts | 270° |
| 2026-05-09 00:17 | 40.01557 | -80.52002 | 30775 ft | 362 kts | 270° |
| 2026-05-09 00:17 | 40.01577 | -80.55295 | 30532 ft | 362 kts | 270° |
| 2026-05-09 00:18 | 40.01596 | -80.58575 | 30286 ft | 362 kts | 270° |
| 2026-05-09 00:18 | 40.01614 | -80.61848 | 30047 ft | 361 kts | 270° |
| 2026-05-09 00:18 | 40.01631 | -80.65134 | 29778 ft | 361 kts | 270° |
| 2026-05-09 00:18 | 40.01647 | -80.68401 | 29488 ft | 359 kts | 270° |
| 2026-05-09 00:19 | 40.01663 | -80.71660 | 29208 ft | 359 kts | 270° |
| 2026-05-09 00:19 | 40.01677 | -80.74909 | 28932 ft | 358 kts | 270° |
| 2026-05-09 00:19 | 40.01622 | -80.78149 | 28658 ft | 357 kts | 266° |
| 2026-05-09 00:19 | 40.01313 | -80.81359 | 28383 ft | 357 kts | 262° |
| 2026-05-09 00:20 | 40.00752 | -80.84514 | 28113 ft | 358 kts | 257° |
| 2026-05-09 00:20 | 39.99941 | -80.87587 | 27848 ft | 360 kts | 252° |
| 2026-05-09 00:20 | 39.99015 | -80.90604 | 27580 ft | 358 kts | 252° |
| 2026-05-09 00:20 | 39.98102 | -80.93622 | 27318 ft | 357 kts | 252° |
| 2026-05-09 00:21 | 39.97194 | -80.96638 | 27074 ft | 357 kts | 252° |
| 2026-05-09 00:21 | 39.96287 | -80.99648 | 26803 ft | 356 kts | 252° |
| 2026-05-09 00:21 | 39.95381 | -81.02645 | 26548 ft | 355 kts | 252° |
| 2026-05-09 00:21 | 39.94474 | -81.05638 | 26294 ft | 355 kts | 252° |
| 2026-05-09 00:22 | 39.93578 | -81.08589 | 26045 ft | 354 kts | 252° |
| 2026-05-09 00:22 | 39.92670 | -81.11576 | 25787 ft | 354 kts | 252° |
| 2026-05-09 00:22 | 39.91763 | -81.14557 | 25544 ft | 353 kts | 252° |
| 2026-05-09 00:22 | 39.90858 | -81.17527 | 25303 ft | 352 kts | 252° |
| 2026-05-09 00:23 | 39.89952 | -81.20496 | 25066 ft | 352 kts | 252° |
| 2026-05-09 00:23 | 39.89045 | -81.23469 | 24818 ft | 352 kts | 252° |
| 2026-05-09 00:23 | 39.88142 | -81.26423 | 24580 ft | 351 kts | 252° |
| 2026-05-09 00:23 | 39.87239 | -81.29376 | 24343 ft | 350 kts | 252° |
| 2026-05-09 00:24 | 39.86334 | -81.32329 | 24108 ft | 351 kts | 252° |
| 2026-05-09 00:24 | 39.85443 | -81.35234 | 23880 ft | 350 kts | 252° |
| 2026-05-09 00:24 | 39.84530 | -81.38208 | 23646 ft | 349 kts | 252° |
| 2026-05-09 00:24 | 39.83628 | -81.41146 | 23362 ft | 350 kts | 252° |
| 2026-05-09 00:25 | 39.82729 | -81.44069 | 22702 ft | 354 kts | 252° |
| 2026-05-09 00:25 | 39.81810 | -81.47056 | 22008 ft | 355 kts | 252° |
| 2026-05-09 00:25 | 39.80893 | -81.50031 | 21519 ft | 349 kts | 252° |
| 2026-05-09 00:25 | 39.80025 | -81.52934 | 21144 ft | 339 kts | 252° |
| 2026-05-09 00:26 | 39.79196 | -81.55789 | 20733 ft | 337 kts | 253° |
| 2026-05-09 00:26 | 39.78359 | -81.58687 | 20304 ft | 339 kts | 253° |
| 2026-05-09 00:26 | 39.77528 | -81.61556 | 19878 ft | 338 kts | 252° |
| 2026-05-09 00:26 | 39.76707 | -81.64370 | 19472 ft | 336 kts | 252° |
| 2026-05-09 00:27 | 39.75877 | -81.67201 | 19054 ft | 335 kts | 252° |
| 2026-05-09 00:27 | 39.75047 | -81.70031 | 18647 ft | 335 kts | 252° |
| 2026-05-09 00:27 | 39.74214 | -81.72863 | 18213 ft | 334 kts | 252° |
| 2026-05-09 00:27 | 39.73385 | -81.75677 | 17778 ft | 332 kts | 252° |
| 2026-05-09 00:28 | 39.72564 | -81.78463 | 17368 ft | 330 kts | 252° |
| 2026-05-09 00:28 | 39.72020 | -81.80307 | 17096 ft | 330 kts | 252° |
| 2026-05-09 00:28 | 39.71198 | -81.83092 | 16689 ft | 329 kts | 252° |
| 2026-05-09 00:28 | 39.70117 | -81.86749 | 16237 ft | 324 kts | 252° |
| 2026-05-09 00:29 | 39.69312 | -81.89465 | 16139 ft | 324 kts | 252° |
| 2026-05-09 00:29 | 39.68764 | -81.91318 | 16073 ft | 326 kts | 252° |
| 2026-05-09 00:29 | 39.67950 | -81.94064 | 16003 ft | 326 kts | 252° |
| 2026-05-09 00:29 | 39.67133 | -81.96818 | 16005 ft | 326 kts | 252° |
| 2026-05-09 00:30 | 39.66317 | -81.99564 | 16006 ft | 326 kts | 252° |
| 2026-05-09 00:30 | 39.65501 | -82.02306 | 16005 ft | 326 kts | 252° |
| 2026-05-09 00:30 | 39.64682 | -82.05057 | 15999 ft | 326 kts | 252° |
| 2026-05-09 00:30 | 39.63864 | -82.07803 | 16004 ft | 326 kts | 252° |
| 2026-05-09 00:31 | 39.63310 | -82.10621 | 16003 ft | 321 kts | 267° |
| 2026-05-09 00:31 | 39.63473 | -82.13497 | 15949 ft | 320 kts | 283° |
| 2026-05-09 00:31 | 39.64325 | -82.16170 | 15524 ft | 326 kts | 299° |
| 2026-05-09 00:31 | 39.65665 | -82.18589 | 14716 ft | 335 kts | 303° |
| 2026-05-09 00:32 | 39.67084 | -82.21039 | 13894 ft | 341 kts | 303° |
| 2026-05-09 00:32 | 39.68489 | -82.23464 | 13159 ft | 341 kts | 303° |
| 2026-05-09 00:32 | 39.69920 | -82.25950 | 12678 ft | 335 kts | 303° |
| 2026-05-09 00:32 | 39.71276 | -82.28318 | 12501 ft | 320 kts | 303° |
| 2026-05-09 00:33 | 39.72550 | -82.30553 | 12380 ft | 306 kts | 302° |
| 2026-05-09 00:33 | 39.73858 | -82.32676 | 12250 ft | 295 kts | 308° |
| 2026-05-09 00:33 | 39.75335 | -82.34462 | 12092 ft | 286 kts | 315° |
| 2026-05-09 00:33 | 39.76861 | -82.36088 | 11721 ft | 283 kts | 315° |
| 2026-05-09 00:34 | 39.78379 | -82.37726 | 11248 ft | 284 kts | 315° |
| 2026-05-09 00:34 | 39.79900 | -82.39376 | 10791 ft | 285 kts | 315° |
| 2026-05-09 00:34 | 39.81422 | -82.41026 | 10361 ft | 285 kts | 314° |
| 2026-05-09 00:34 | 39.82941 | -82.42671 | 9907 ft | 285 kts | 314° |
| 2026-05-09 00:35 | 39.84477 | -82.44339 | 9441 ft | 284 kts | 313° |
| 2026-05-09 00:35 | 39.85639 | -82.46314 | 9018 ft | 270 kts | 288° |
| 2026-05-09 00:35 | 39.85953 | -82.48643 | 8663 ft | 256 kts | 262° |
| 2026-05-09 00:35 | 39.85423 | -82.50800 | 8284 ft | 251 kts | 243° |
| 2026-05-09 00:36 | 39.84619 | -82.52829 | 7863 ft | 251 kts | 242° |
| 2026-05-09 00:36 | 39.83821 | -82.54835 | 7484 ft | 249 kts | 242° |
| 2026-05-09 00:36 | 39.82819 | -82.56658 | 7060 ft | 250 kts | 221° |
| 2026-05-09 00:36 | 39.81388 | -82.57940 | 6676 ft | 250 kts | 215° |
| 2026-05-09 00:37 | 39.79933 | -82.59166 | 6298 ft | 249 kts | 215° |
| 2026-05-09 00:37 | 39.78444 | -82.60260 | 6175 ft | 251 kts | 201° |
| 2026-05-09 00:37 | 39.76669 | -82.60434 | 6077 ft | 264 kts | 174° |
| 2026-05-09 00:37 | 39.74998 | -82.59476 | 6005 ft | 273 kts | 146° |
| 2026-05-09 00:38 | 39.73780 | -82.57490 | 6014 ft | 287 kts | 118° |
| 2026-05-09 00:38 | 39.73352 | -82.54934 | 6006 ft | 295 kts | 91° |
| 2026-05-09 00:38 | 39.73825 | -82.52344 | 6010 ft | 299 kts | 63° |
| 2026-05-09 00:38 | 39.75115 | -82.50248 | 5996 ft | 298 kts | 36° |
| 2026-05-09 00:39 | 39.76940 | -82.49091 | 6007 ft | 290 kts | 7° |
| 2026-05-09 00:39 | 39.78930 | -82.48968 | 5998 ft | 286 kts | 352° |
| 2026-05-09 00:39 | 39.80895 | -82.49078 | 6004 ft | 285 kts | 352° |
| 2026-05-09 00:39 | 39.82870 | -82.49185 | 6008 ft | 284 kts | 352° |
| 2026-05-09 00:40 | 39.84857 | -82.49293 | 6008 ft | 285 kts | 352° |
| 2026-05-09 00:40 | 39.86843 | -82.49399 | 5986 ft | 285 kts | 352° |
| 2026-05-09 00:40 | 39.88813 | -82.49526 | 5990 ft | 283 kts | 347° |
| 2026-05-09 00:41 | 39.91916 | -82.52077 | 5817 ft | 260 kts | 303° |
| 2026-05-09 00:41 | 39.93028 | -82.53929 | 5477 ft | 259 kts | 302° |
| 2026-05-09 00:41 | 39.94115 | -82.55759 | 5077 ft | 259 kts | 302° |
| 2026-05-09 00:41 | 39.95199 | -82.57581 | 4949 ft | 247 kts | 302° |
| 2026-05-09 00:42 | 39.96235 | -82.59305 | 4807 ft | 230 kts | 302° |
| 2026-05-09 00:42 | 39.97149 | -82.60885 | 4667 ft | 210 kts | 294° |
| 2026-05-09 00:42 | 39.97671 | -82.62552 | 4492 ft | 191 kts | 278° |
| 2026-05-09 00:42 | 39.97867 | -82.64216 | 4252 ft | 183 kts | 271° |
| 2026-05-09 00:43 | 39.97952 | -82.65893 | 4017 ft | 185 kts | 271° |
| 2026-05-09 00:43 | 39.98047 | -82.67560 | 3788 ft | 183 kts | 271° |
| 2026-05-09 00:43 | 39.98139 | -82.69186 | 3536 ft | 176 kts | 271° |
| 2026-05-09 00:43 | 39.98227 | -82.70734 | 3327 ft | 164 kts | 271° |
| 2026-05-09 00:44 | 39.98308 | -82.72187 | 3124 ft | 164 kts | 271° |
| 2026-05-09 00:44 | 39.98392 | -82.73682 | 2895 ft | 165 kts | 272° |
| 2026-05-09 00:44 | 39.98476 | -82.75171 | 2678 ft | 165 kts | 272° |
| 2026-05-09 00:44 | 39.98559 | -82.76650 | 2448 ft | 164 kts | 272° |
| 2026-05-09 00:45 | 39.98642 | -82.78126 | 2238 ft | 156 kts | 273° |
| 2026-05-09 00:45 | 39.98718 | -82.79444 | 2027 ft | 137 kts | 272° |
| 2026-05-09 00:45 | 39.98784 | -82.80624 | 1853 ft | 127 kts | 272° |
| 2026-05-09 00:45 | 39.98850 | -82.81799 | 1690 ft | 129 kts | 273° |
| 2026-05-09 00:46 | 39.98916 | -82.82967 | 1505 ft | 131 kts | 273° |
| 2026-05-09 00:46 | 39.98985 | -82.84175 | 1329 ft | 133 kts | 273° |
| 2026-05-09 00:46 | 39.99052 | -82.85372 | 1153 ft | 133 kts | 273° |
| 2026-05-09 00:46 | 39.99120 | -82.86545 | 979 ft | 129 kts | 273° |
| 2026-05-09 00:47 | 39.99184 | -82.87721 | 825 ft | 130 kts | 273° |
| 2026-05-09 00:47 | 39.99238 | -82.88708 | 822 ft | 65 kts | 275° |
| 2026-05-09 00:47 | 39.99253 | -82.88937 | 816 ft | 22 kts | 276° |
| 2026-05-09 00:47 | 39.99303 | -82.89102 | 820 ft | 18 kts | 335° |
| 2026-05-09 00:48 | 39.99365 | -82.89109 | 820 ft | 0 kts | 1° |
| 2026-05-09 00:48 | 39.99367 | -82.89109 | 820 ft | 1 kts | 1° |
| 2026-05-09 00:48 | 39.99382 | -82.89109 | 818 ft | 3 kts | 1° |
| 2026-05-09 00:48 | 39.99422 | -82.89089 | 819 ft | 10 kts | 42° |
| 2026-05-09 00:49 | 39.99433 | -82.88989 | 819 ft | 13 kts | 92° |
| 2026-05-09 00:49 | 39.99427 | -82.88858 | 819 ft | 16 kts | 95° |
| 2026-05-09 00:49 | 39.99417 | -82.88696 | 817 ft | 20 kts | 94° |
| 2026-05-09 00:49 | 39.99406 | -82.88509 | 819 ft | 21 kts | 93° |
| 2026-05-09 00:50 | 39.99437 | -82.88335 | 816 ft | 20 kts | 25° |
| 2026-05-09 00:50 | 39.99575 | -82.88317 | 818 ft | 20 kts | 1° |
| 2026-05-09 00:50 | 39.99676 | -82.88327 | 819 ft | 6 kts | 313° |
| 2026-05-09 00:50 | 39.99675 | -82.88377 | 819 ft | 0 kts | 279° |
| 2026-05-09 00:51 | 39.99676 | -82.88386 | 820 ft | 0 kts | 277° |
| 2026-05-09 00:51 | 39.99676 | -82.88384 | 820 ft | 0 kts | 274° |